Time;durP1;ratioP1;P1;durP2;ratioP2;P2;SDS_P1;SDS_P2;PMS_P1;PMS_P2;Temp;Humidity;BMP_temperature;BMP_pressure;BME280_temperature;BME280_humidity;BME280_pressure;Samples;Min_cycle;Max_cycle;Signal;HPM_P1;HPM_P2
2021/04/28 00:01:55;;;;;;;;;;;;;;;5.83;82.13;101814.55;1751397;82;20259;-83
2021/04/28 00:04:27;;;;;;;;;;;;;;;5.78;82.26;101812.89;1751334;82;20217;-82
2021/04/28 00:07:03;;;;;;;;;;;;;;;5.80;82.42;101819.61;1751278;82;20645;-81
2021/04/28 00:09:34;;;;;;;;;;;;;;;5.86;82.46;101814.67;1751272;82;20216;-83
2021/04/28 00:12:06;;;;;;;;;;;;;;;5.88;82.30;101811.18;1751489;81;20551;-85
2021/04/28 00:14:38;;;;;;;;;;;;;;;5.84;82.03;101820.89;1751583;82;20268;-87
2021/04/28 00:17:10;;;;;;;;;;;;;;;5.78;81.92;101818.40;1751749;82;20253;-86
2021/04/28 00:19:42;;;;;;;;;;;;;;;5.72;82.08;101815.58;1751765;82;20308;-86
2021/04/28 00:22:20;;;;;;;;;;;;;;;5.70;82.03;101824.08;1751449;82;20262;-85
2021/04/28 00:24:52;;;;;;;;;;;;;;;5.65;82.02;101816.94;1751252;82;20346;-84
2021/04/28 00:27:24;;;;;;;;;;;;;;;5.60;81.97;101819.44;1751890;81;20185;-85
2021/04/28 00:29:57;;;;;;;;;;;;;;;5.55;82.00;101814.21;1747095;81;20258;-86
2021/04/28 00:32:29;;;;;;;;;;;;;;;5.50;82.08;101809.28;1748679;82;20598;-86
2021/04/28 00:35:02;;;;;;;;;;;;;;;5.48;82.19;101818.28;1748636;82;20258;-81
2021/04/28 00:37:34;;;;;;;;;;;;;;;5.50;82.32;101817.55;1748696;82;20269;-85
2021/04/28 00:40:15;;;;;;;;;;;;;;;5.48;82.26;101821.55;1748449;82;20285;-82
2021/04/28 00:42:47;;;;;;;;;;;;;;;5.43;82.25;101826.83;1748283;82;20186;-71
2021/04/28 00:45:20;;;;;;;;;;;;;;;5.37;82.28;101827.08;1746579;82;20261;-79
2021/04/28 00:47:52;;;;;;;;;;;;;;;5.34;82.36;101821.12;1723229;82;20210;-77
2021/04/28 00:50:27;;;;;;;;;;;;;;;5.30;82.46;101822.55;1746941;82;20210;-78
2021/04/28 00:53:00;;;;;;;;;;;;;;;5.29;82.69;101815.34;1747156;82;20288;-78
2021/04/28 00:55:32;;;;;;;;;;;;;;;5.28;82.75;101819.16;1748269;82;20181;-72
2021/04/28 00:58:05;;;;;;;;;;;;;;;5.26;82.70;101822.64;1748274;82;20253;-75
2021/04/28 01:00:36;;;;;;;;;;;;;;;5.22;82.66;101824.08;1748528;82;20189;-73
2021/04/28 01:03:09;;;;;;;;;;;;;;;5.16;82.78;101819.36;1748176;82;20169;-76
2021/04/28 01:05:40;;;;;;;;;;;;;;;5.18;83.04;101813.13;1746850;82;20506;-73
2021/04/28 01:08:12;;;;;;;;;;;;;;;5.17;83.12;101813.67;1746878;82;20186;-77
2021/04/28 01:10:46;;;;;;;;;;;;;;;5.19;83.15;101813.48;1746700;82;20265;-73
2021/04/28 01:13:19;;;;;;;;;;;;;;;5.19;83.21;101804.69;1746948;82;20178;-69
2021/04/28 01:15:52;;;;;;;;;;;;;;;5.16;83.06;101817.48;1748210;80;20246;-76
2021/04/28 01:18:26;;;;;;;;;;;;;;;5.12;83.07;101820.83;1782577;80;20234;-76
2021/04/28 01:20:58;;;;;;;;;;;;;;;5.05;83.17;101818.52;1775455;80;20182;-76
2021/04/28 01:23:29;;;;;;;;;;;;;;;5.06;83.37;101818.87;1746766;82;20249;-75
2021/04/28 01:26:03;;;;;;;;;;;;;;;5.04;83.28;101820.44;1746861;82;20257;-77
2021/04/28 01:28:35;;;;;;;;;;;;;;;4.99;83.22;101827.05;1767561;80;20267;-69
2021/04/28 01:31:11;;;;;;;;;;;;;;;4.95;83.32;101824.89;1768852;80;20255;-76
2021/04/28 01:33:51;;;;;;;;;;;;;;;4.94;83.56;101813.56;1768925;80;20220;-72
2021/04/28 01:36:24;;;;;;;;;;;;;;;4.96;83.57;101809.53;1739475;82;20257;-72
2021/04/28 01:39:02;;;;;;;;;;;;;;;4.94;83.45;101810.81;1742532;82;20301;-72
2021/04/28 01:41:40;;;;;;;;;;;;;;;4.86;83.41;101804.05;1742557;82;20558;-78
2021/04/28 01:44:15;;;;;;;;;;;;;;;4.77;83.54;101797.81;1742525;82;20217;-72
2021/04/28 01:46:47;;;;;;;;;;;;;;;4.71;83.73;101807.39;1742683;82;20262;-72
2021/04/28 01:49:20;;;;;;;;;;;;;;;4.72;83.99;101807.20;1742522;82;20242;-72
2021/04/28 01:51:54;;;;;;;;;;;;;;;4.74;84.01;101802.86;1742437;81;20250;-75
2021/04/28 01:54:27;;;;;;;;;;;;;;;4.77;84.03;101807.98;1742470;82;20253;-75
2021/04/28 01:56:59;;;;;;;;;;;;;;;4.76;83.94;101813.16;1742475;82;20254;-74
2021/04/28 01:59:37;;;;;;;;;;;;;;;4.73;83.99;101824.02;1742375;82;20226;-71
2021/04/28 02:02:19;;;;;;;;;;;;;;;4.73;84.07;101825.91;1713542;82;20258;-73
2021/04/28 02:04:51;;;;;;;;;;;;;;;4.74;84.11;101834.48;1742529;82;20289;-70
2021/04/28 02:07:23;;;;;;;;;;;;;;;4.74;84.10;101824.34;1742427;82;20190;-76
2021/04/28 02:09:55;;;;;;;;;;;;;;;4.74;84.09;101828.98;1742454;82;20649;-71
2021/04/28 02:12:29;;;;;;;;;;;;;;;4.72;84.16;101831.95;1742461;82;20213;-74
2021/04/28 02:15:01;;;;;;;;;;;;;;;4.70;84.29;101834.56;1742415;82;20619;-72
2021/04/28 02:17:35;;;;;;;;;;;;;;;4.67;84.33;101829.44;1743238;80;20312;-77
2021/04/28 02:20:09;;;;;;;;;;;;;;;4.61;84.35;101835.71;1745409;82;20304;-74
2021/04/28 02:22:42;;;;;;;;;;;;;;;4.58;84.43;101838.33;1745303;82;20225;-75
2021/04/28 02:25:15;;;;;;;;;;;;;;;4.55;84.56;101837.35;1743359;82;20182;-77
2021/04/28 02:27:53;;;;;;;;;;;;;;;4.56;84.73;101834.92;1745497;80;20618;-73
2021/04/28 02:30:24;;;;;;;;;;;;;;;4.54;84.78;101835.66;1721513;82;20216;-74
2021/04/28 02:32:56;;;;;;;;;;;;;;;4.55;84.80;101834.60;1744941;82;20249;-79
2021/04/28 02:35:46;;;;;;;;;;;;;;;4.56;84.75;101839.56;1749866;82;20289;-79
2021/04/28 02:38:36;;;;;;;;;;;;;;;4.57;84.77;101841.26;1753870;80;20245;-78
2021/04/28 02:41:14;;;;;;;;;;;;;;;4.55;84.77;101832.36;1749351;82;20229;-78
2021/04/28 02:43:49;;;;;;;;;;;;;;;4.48;84.85;101846.05;1743966;82;20597;-81
2021/04/28 02:46:27;;;;;;;;;;;;;;;4.45;84.92;101849.16;1749905;81;20298;-79
2021/04/28 02:49:01;;;;;;;;;;;;;;;4.48;85.06;101836.94;1774153;80;20250;-80
2021/04/28 02:51:41;;;;;;;;;;;;;;;4.55;85.09;101843.36;1753484;80;20253;-81
2021/04/28 02:54:14;;;;;;;;;;;;;;;4.56;84.85;101845.92;1750626;81;20257;-80
2021/04/28 02:56:47;;;;;;;;;;;;;;;4.53;84.71;101844.09;1750652;82;20186;-80
2021/04/28 02:59:20;;;;;;;;;;;;;;;4.50;84.66;101844.45;1750541;82;20178;-81
2021/04/28 03:01:51;;;;;;;;;;;;;;;4.45;84.77;101845.04;1749739;81;20290;-82
2021/04/28 03:04:23;;;;;;;;;;;;;;;4.45;84.94;101848.33;1750956;81;20255;-80
2021/04/28 03:07:13;;;;;;;;;;;;;;;4.47;84.98;101848.44;1749682;81;20253;-80
2021/04/28 03:09:46;;;;;;;;;;;;;;;4.47;84.79;101849.81;1751291;82;20630;-80
2021/04/28 03:12:18;;;;;;;;;;;;;;;4.41;84.78;101846.46;1751425;82;20197;-81
2021/04/28 03:14:54;;;;;;;;;;;;;;;4.43;84.93;101858.14;1751474;82;20218;-83
2021/04/28 03:17:29;;;;;;;;;;;;;;;4.44;84.87;101857.59;1751516;82;20613;-81
2021/04/28 03:20:09;;;;;;;;;;;;;;;4.45;84.90;101859.33;1751432;82;20285;-82
2021/04/28 03:22:44;;;;;;;;;;;;;;;4.49;84.78;101864.75;1749898;82;20186;-76
2021/04/28 03:25:15;;;;;;;;;;;;;;;4.50;84.74;101865.08;1749831;82;20253;-79
2021/04/28 03:27:49;;;;;;;;;;;;;;;4.53;84.71;101866.91;1749240;81;20301;-77
2021/04/28 03:30:22;;;;;;;;;;;;;;;4.60;84.70;101868.39;1749387;82;20185;-76
2021/04/28 03:32:54;;;;;;;;;;;;;;;4.63;84.52;101862.48;1749651;82;20257;-81
2021/04/28 03:35:35;;;;;;;;;;;;;;;4.66;84.44;101862.11;1746241;81;20273;-81
2021/04/28 03:38:18;;;;;;;;;;;;;;;4.70;84.31;101863.45;1676872;82;20195;-76
2021/04/28 03:40:50;;;;;;;;;;;;;;;4.73;84.27;101871.29;1750284;82;20263;-81
2021/04/28 03:43:22;;;;;;;;;;;;;;;4.79;84.31;101871.38;1750404;82;20190;-80
2021/04/28 03:45:56;;;;;;;;;;;;;;;4.89;84.33;101876.56;1750730;82;20284;-77
2021/04/28 03:48:29;;;;;;;;;;;;;;;4.98;84.10;101868.50;1768243;80;20222;-77
2021/04/28 03:51:02;;;;;;;;;;;;;;;5.07;83.86;101874.23;1782551;80;20175;-76
2021/04/28 03:53:34;;;;;;;;;;;;;;;5.17;83.72;101872.84;1782063;80;20215;-79
2021/04/28 03:56:06;;;;;;;;;;;;;;;5.25;83.46;101862.23;1774835;80;20189;-79
2021/04/28 03:58:39;;;;;;;;;;;;;;;5.32;83.31;101863.15;1750292;82;20241;-79
2021/04/28 04:01:12;;;;;;;;;;;;;;;5.39;83.09;101873.69;1750110;82;20261;-81
2021/04/28 04:03:45;;;;;;;;;;;;;;;5.46;82.86;101875.98;1750703;81;20285;-79
2021/04/28 04:06:35;;;;;;;;;;;;;;;5.52;82.38;101863.66;1750124;82;20297;-81
2021/04/28 04:09:14;;;;;;;;;;;;;;;5.61;82.03;101854.19;1750437;82;20546;-82
2021/04/28 04:11:48;;;;;;;;;;;;;;;5.68;81.85;101851.50;1750747;82;20285;-76
2021/04/28 04:14:22;;;;;;;;;;;;;;;5.71;81.78;101851.08;1746212;82;20261;-75
2021/04/28 04:16:55;;;;;;;;;;;;;;;5.78;81.79;101854.22;1750144;82;20344;-75
2021/04/28 04:19:27;;;;;;;;;;;;;;;5.86;81.38;101852.70;1750959;82;20610;-80
2021/04/28 04:22:06;;;;;;;;;;;;;;;5.95;81.29;101852.03;1726068;82;20890;-82
2021/04/28 04:24:55;;;;;;;;;;;;;;;6.14;81.50;101863.70;1741488;80;20189;-76
2021/04/28 04:27:27;;;;;;;;;;;;;;;6.39;80.76;101867.14;1763584;80;20210;-74
2021/04/28 04:30:18;;;;;;;;;;;;;;;6.54;79.81;101878.87;1720868;81;20184;-77
2021/04/28 04:33:14;;;;;;;;;;;;;;;6.67;79.32;101887.75;1723571;82;20184;-78
2021/04/28 04:35:48;;;;;;;;;;;;;;;6.90;78.95;101896.55;1723826;81;20259;-83
2021/04/28 04:38:33;;;;;;;;;;;;;;;7.24;79.48;101893.97;1755159;82;20177;-81
2021/04/28 04:41:06;;;;;;;;;;;;;;;7.65;79.03;101893.29;1766213;80;20254;-80
2021/04/28 04:43:48;;;;;;;;;;;;;;;7.87;77.35;101886.50;1782476;80;20175;-79
2021/04/28 04:46:40;;;;;;;;;;;;;;;8.00;75.52;101889.25;1782307;80;20287;-83
2021/04/28 04:49:16;;;;;;;;;;;;;;;7.97;74.62;101892.42;1782539;80;20222;-82
2021/04/28 04:51:48;;;;;;;;;;;;;;;7.95;74.97;101895.11;1782560;80;20227;-77
2021/04/28 04:54:24;;;;;;;;;;;;;;;8.07;74.95;101903.05;1782628;80;20547;-78
2021/04/28 04:56:57;;;;;;;;;;;;;;;8.47;76.15;101909.73;1782361;80;20230;-79
2021/04/28 04:59:28;;;;;;;;;;;;;;;9.06;75.93;101913.11;1782762;80;20318;-83
2021/04/28 05:02:00;;;;;;;;;;;;;;;9.58;74.57;101921.64;1782558;80;20186;-79
2021/04/28 05:04:33;;;;;;;;;;;;;;;9.94;72.92;101918.50;1782416;80;20187;-83
2021/04/28 05:07:04;;;;;;;;;;;;;;;10.35;71.85;101920.15;1733482;82;20242;-79
2021/04/28 05:09:37;;;;;;;;;;;;;;;10.77;70.49;101926.77;1754709;82;20186;-78
2021/04/28 05:12:11;;;;;;;;;;;;;;;11.11;69.45;101922.80;1753461;82;20185;-80
2021/04/28 05:14:43;;;;;;;;;;;;;;;11.29;67.78;101915.81;1756052;82;20190;-81
2021/04/28 05:17:15;;;;;;;;;;;;;;;11.31;67.07;101915.03;1756591;82;20289;-83
2021/04/28 05:19:47;;;;;;;;;;;;;;;11.27;65.29;101919.38;1755820;81;20597;-83
2021/04/28 05:22:27;;;;;;;;;;;;;;;11.04;65.02;101926.20;1755477;81;20217;-84
2021/04/28 05:25:00;;;;;;;;;;;;;;;10.81;65.43;101933.00;1728473;82;20297;-83
2021/04/28 05:27:36;;;;;;;;;;;;;;;10.54;65.36;101934.39;1754880;81;20249;-87
2021/04/28 05:30:14;;;;;;;;;;;;;;;10.28;65.81;101937.97;1754383;82;20221;-83
2021/04/28 05:32:45;;;;;;;;;;;;;;;10.00;66.33;101949.50;1755168;82;20222;-85
2021/04/28 05:35:19;;;;;;;;;;;;;;;9.78;67.07;101945.95;1754929;81;20221;-86
2021/04/28 05:37:53;;;;;;;;;;;;;;;9.65;67.54;101945.48;1755066;82;20299;-83
2021/04/28 05:40:24;;;;;;;;;;;;;;;9.62;68.09;101950.08;1755206;82;20190;-85
2021/04/28 05:42:56;;;;;;;;;;;;;;;9.60;68.52;101939.76;1755189;82;20293;-81
2021/04/28 05:45:28;;;;;;;;;;;;;;;9.61;68.50;101940.06;1755263;82;20531;-84
2021/04/28 05:48:00;;;;;;;;;;;;;;;9.71;68.84;101957.08;1755455;82;20193;-83
2021/04/28 05:50:32;;;;;;;;;;;;;;;9.76;68.07;101958.64;1755601;82;20304;-84
2021/04/28 05:53:04;;;;;;;;;;;;;;;9.66;67.94;101962.99;1755501;82;20314;-81
2021/04/28 05:55:36;;;;;;;;;;;;;;;9.57;68.62;101956.86;1755521;82;20293;-82
2021/04/28 05:58:08;;;;;;;;;;;;;;;9.52;68.32;101962.73;1755547;82;20253;-84
2021/04/28 06:00:40;;;;;;;;;;;;;;;9.41;68.54;101963.44;1755429;82;20186;-83
2021/04/28 06:03:11;;;;;;;;;;;;;;;9.27;68.92;101958.52;1721899;79;20188;-78
2021/04/28 06:05:43;;;;;;;;;;;;;;;9.25;69.43;101950.94;1698647;84;20228;-79
2021/04/28 06:08:14;;;;;;;;;;;;;;;9.36;69.78;101955.79;1701039;83;20521;-76
2021/04/28 06:10:46;;;;;;;;;;;;;;;9.51;69.49;101957.75;1700958;83;20265;-79
2021/04/28 06:13:17;;;;;;;;;;;;;;;9.54;68.66;101966.16;1700887;83;20292;-78
2021/04/28 06:15:49;;;;;;;;;;;;;;;9.54;69.02;101968.94;1700900;84;20257;-77
2021/04/28 06:18:21;;;;;;;;;;;;;;;9.50;68.99;101978.23;1700845;83;20265;-79
2021/04/28 06:20:53;;;;;;;;;;;;;;;9.40;68.79;101976.98;1700862;84;20197;-78
2021/04/28 06:23:24;;;;;;;;;;;;;;;9.28;69.20;101990.70;1700829;84;20580;-80
2021/04/28 06:25:56;;;;;;;;;;;;;;;9.21;69.16;101994.04;1700930;83;20189;-78
2021/04/28 06:28:28;;;;;;;;;;;;;;;9.12;69.33;101991.19;1701106;83;20557;-78
2021/04/28 06:31:00;;;;;;;;;;;;;;;9.03;69.60;102008.27;1700847;83;20253;-81
2021/04/28 06:33:31;;;;;;;;;;;;;;;8.96;69.79;102005.54;1700889;83;20581;-80
2021/04/28 06:36:03;;;;;;;;;;;;;;;8.92;69.89;102001.48;1701061;84;20268;-78
2021/04/28 06:38:36;;;;;;;;;;;;;;;8.90;70.03;102000.87;1700794;84;20224;-82
2021/04/28 06:41:08;;;;;;;;;;;;;;;8.87;70.06;102005.99;1683730;84;20303;-76
2021/04/28 06:43:40;;;;;;;;;;;;;;;8.85;70.20;102010.88;1700773;84;20522;-80
2021/04/28 06:46:13;;;;;;;;;;;;;;;8.89;70.56;102015.79;1700390;83;20660;-77
2021/04/28 06:48:45;;;;;;;;;;;;;;;8.99;70.44;102007.02;1701005;83;21002;-80
2021/04/28 06:51:17;;;;;;;;;;;;;;;9.01;70.25;102020.94;1700829;83;20221;-79
2021/04/28 06:53:50;;;;;;;;;;;;;;;9.04;70.15;102019.14;1700717;83;20196;-80
2021/04/28 06:56:22;;;;;;;;;;;;;;;9.05;70.21;102020.83;1700906;83;20297;-78
2021/04/28 06:58:53;;;;;;;;;;;;;;;9.10;70.09;102030.73;1701050;84;20648;-79
2021/04/28 07:01:26;;;;;;;;;;;;;;;9.16;69.97;102031.77;1701049;83;20517;-80
2021/04/28 07:03:59;;;;;;;;;;;;;;;9.19;69.48;102028.58;1720943;82;20210;-78
2021/04/28 07:06:31;;;;;;;;;;;;;;;9.19;69.33;102050.19;1713516;83;20262;-80
2021/04/28 07:09:04;;;;;;;;;;;;;;;9.16;68.67;102039.56;1731101;83;20210;-82
2021/04/28 07:11:36;;;;;;;;;;;;;;;9.11;68.87;102040.73;1731422;83;20187;-80
2021/04/28 07:14:09;;;;;;;;;;;;;;;9.07;68.85;102050.55;1731191;83;20591;-79
2021/04/28 07:16:40;;;;;;;;;;;;;;;9.09;69.05;102044.80;1731288;83;20290;-78
2021/04/28 07:19:13;;;;;;;;;;;;;;;9.12;69.14;102029.14;1731133;83;20222;-78
2021/04/28 07:21:44;;;;;;;;;;;;;;;9.14;69.15;102039.45;1731472;83;20218;-79
2021/04/28 07:24:16;;;;;;;;;;;;;;;9.09;69.03;102033.19;1731165;83;20527;-82
2021/04/28 07:26:48;;;;;;;;;;;;;;;9.10;69.07;102037.66;1731214;82;20297;-80
2021/04/28 07:29:20;;;;;;;;;;;;;;;9.15;69.24;102037.86;1731262;83;20618;-79
2021/04/28 07:31:51;;;;;;;;;;;;;;;9.25;69.53;102042.39;1731153;83;20266;-81
2021/04/28 07:34:23;;;;;;;;;;;;;;;9.36;69.51;102045.87;1731405;83;20263;-81
2021/04/28 07:36:55;;;;;;;;;;;;;;;9.41;68.97;102043.30;1731142;83;20258;-78
2021/04/28 07:39:26;;;;;;;;;;;;;;;9.45;68.72;102040.41;1731240;83;20254;-75
2021/04/28 07:41:58;;;;;;;;;;;;;;;9.45;68.23;102039.55;1731183;83;20511;-78
2021/04/28 07:44:31;;;;;;;;;;;;;;;9.45;68.48;102044.57;1730891;82;20265;-79
2021/04/28 07:47:02;;;;;;;;;;;;;;;9.43;68.09;102041.14;1731407;83;20644;-76
2021/04/28 07:49:34;;;;;;;;;;;;;;;9.36;68.47;102041.71;1731061;83;20325;-81
2021/04/28 07:52:07;;;;;;;;;;;;;;;9.30;68.46;102032.05;1728493;83;20337;-81
2021/04/28 07:54:39;;;;;;;;;;;;;;;9.23;68.67;102031.23;1731139;83;20258;-76
2021/04/28 07:57:12;;;;;;;;;;;;;;;9.24;69.16;102037.92;1731148;83;20349;-78
2021/04/28 07:59:44;;;;;;;;;;;;;;;9.25;68.61;102039.61;1731020;83;20290;-80
2021/04/28 08:02:16;;;;;;;;;;;;;;;9.18;68.62;102033.25;1730999;83;20598;-77
2021/04/28 08:04:49;;;;;;;;;;;;;;;9.17;69.01;102042.64;1731681;82;20193;-80
2021/04/28 08:07:21;;;;;;;;;;;;;;;9.15;68.93;102042.02;1733678;83;20266;-80
2021/04/28 08:09:54;;;;;;;;;;;;;;;9.19;69.07;102043.27;1733509;83;20325;-82
2021/04/28 08:12:26;;;;;;;;;;;;;;;9.25;68.90;102039.61;1733571;82;20210;-77
2021/04/28 08:14:57;;;;;;;;;;;;;;;9.32;69.06;102043.24;1733644;83;20590;-80
2021/04/28 08:17:29;;;;;;;;;;;;;;;9.40;68.76;102043.50;1733607;82;20206;-81
2021/04/28 08:20:01;;;;;;;;;;;;;;;9.50;68.56;102033.67;1713500;83;20587;-78
2021/04/28 08:22:34;;;;;;;;;;;;;;;9.64;67.96;102039.46;1733709;82;20262;-77
2021/04/28 08:25:07;;;;;;;;;;;;;;;9.75;67.72;102034.61;1733591;83;20586;-80
2021/04/28 08:27:39;;;;;;;;;;;;;;;9.88;67.12;102034.52;1733632;83;20651;-80
2021/04/28 08:30:12;;;;;;;;;;;;;;;10.06;66.98;102034.65;1733353;83;20190;-76
2021/04/28 08:32:43;;;;;;;;;;;;;;;10.20;65.94;102032.08;1733454;83;20334;-80
2021/04/28 08:35:16;;;;;;;;;;;;;;;10.30;65.81;102026.88;1733480;83;20298;-76
2021/04/28 08:37:49;;;;;;;;;;;;;;;10.44;65.58;102028.98;1733540;83;20270;-80
2021/04/28 08:40:23;;;;;;;;;;;;;;;10.46;64.47;102022.69;1733541;82;20654;-81
2021/04/28 08:42:55;;;;;;;;;;;;;;;10.48;63.99;102027.47;1733331;83;20226;-79
2021/04/28 08:45:26;;;;;;;;;;;;;;;10.44;63.54;102035.41;1733583;83;20599;-80
2021/04/28 08:47:58;;;;;;;;;;;;;;;10.35;64.06;102028.98;1733643;82;20385;-80
2021/04/28 08:50:29;;;;;;;;;;;;;;;10.22;63.85;102029.09;1733456;83;20193;-80
2021/04/28 08:53:01;;;;;;;;;;;;;;;10.04;64.57;102027.62;1733455;82;20182;-80
2021/04/28 08:55:35;;;;;;;;;;;;;;;9.99;65.18;102017.17;1733375;83;20526;-76
2021/04/28 08:58:07;;;;;;;;;;;;;;;10.02;65.56;102025.55;1733553;82;20376;-77
2021/04/28 09:00:38;;;;;;;;;;;;;;;10.07;65.92;102018.30;1733517;83;20293;-78
2021/04/28 09:03:12;;;;;;;;;;;;;;;10.04;65.77;102025.67;1733455;83;20273;-82
2021/04/28 09:05:44;;;;;;;;;;;;;;;10.02;65.93;102022.25;1733436;82;20595;-81
2021/04/28 09:08:17;;;;;;;;;;;;;;;10.02;65.90;102022.78;1733490;83;20350;-76
2021/04/28 09:11:22;;;;;;;;;;;;;;;10.00;65.97;102030.48;1733484;82;20262;-81
2021/04/28 09:14:11;;;;;;;;;;;;;;;10.02;66.20;102025.02;1663447;85;20247;-76
2021/04/28 09:17:00;;;;;;;;;;;;;;;10.02;66.00;102037.52;1662414;86;20192;-76
2021/04/28 09:19:57;;;;;;;;;;;;;;;10.02;66.42;102023.64;1766834;80;20259;-79
2021/04/28 09:22:26;;;;;;;;;;;;;;;10.03;66.38;102026.75;1747891;80;20254;-76
2021/04/28 09:25:39;;;;;;;;;;;;;;;10.03;66.55;102021.20;1762385;81;20257;-78
2021/04/28 09:28:35;;;;;;;;;;;;;;;10.02;66.28;102026.41;1735259;83;20622;-76
2021/04/28 09:31:11;;;;;;;;;;;;;;;9.90;66.28;102035.14;1735564;83;20270;-81
2021/04/28 09:33:48;;;;;;;;;;;;;;;9.81;66.76;102027.30;1735688;83;20325;-78
2021/04/28 09:36:41;;;;;;;;;;;;;;;9.76;67.25;102033.53;1735868;83;20191;-84
2021/04/28 09:39:38;;;;;;;;;;;;;;;9.77;67.75;102032.97;1735842;82;20206;-76
2021/04/28 09:42:13;;;;;;;;;;;;;;;9.76;67.96;102025.20;1735880;83;20257;-77
2021/04/28 09:44:49;;;;;;;;;;;;;;;9.78;67.69;102028.59;1735747;82;20289;-75
2021/04/28 09:47:22;;;;;;;;;;;;;;;9.77;67.31;102029.67;1735886;83;20202;-76
2021/04/28 09:49:59;;;;;;;;;;;;;;;9.78;67.40;102027.77;1735990;83;20226;-76
2021/04/28 09:52:34;;;;;;;;;;;;;;;9.75;67.63;102029.58;1736013;82;20546;-76
2021/04/28 09:55:09;;;;;;;;;;;;;;;9.75;67.92;102024.03;1735826;82;20286;-76
2021/04/28 09:57:46;;;;;;;;;;;;;;;9.76;67.96;102027.98;1735744;82;20254;-74
2021/04/28 10:00:24;;;;;;;;;;;;;;;9.76;67.66;102036.30;1736120;82;20194;-82
2021/04/28 10:02:59;;;;;;;;;;;;;;;9.72;68.02;102039.19;1735763;83;20270;-80
2021/04/28 10:05:41;;;;;;;;;;;;;;;9.72;68.30;102043.35;1735457;83;20214;-79
2021/04/28 10:08:23;;;;;;;;;;;;;;;9.77;68.00;102032.45;1741573;82;20191;-83
2021/04/28 10:10:54;;;;;;;;;;;;;;;9.77;68.17;102026.04;1741701;82;20505;-80
2021/04/28 10:13:26;;;;;;;;;;;;;;;9.80;68.30;102034.77;1741697;82;20565;-82
2021/04/28 10:16:02;;;;;;;;;;;;;;;9.84;68.44;102036.03;1738561;82;20202;-73
2021/04/28 10:18:34;;;;;;;;;;;;;;;9.84;68.26;102038.80;1741422;82;20258;-79
2021/04/28 10:21:06;;;;;;;;;;;;;;;9.84;68.55;102037.41;1742752;81;20316;-78
2021/04/28 10:23:38;;;;;;;;;;;;;;;9.84;68.64;102038.80;1750468;80;20255;-75
2021/04/28 10:26:10;;;;;;;;;;;;;;;9.87;68.59;102045.83;1756383;80;20617;-77
2021/04/28 10:28:42;;;;;;;;;;;;;;;9.92;68.44;102048.23;1753126;81;20212;-75
2021/04/28 10:31:18;;;;;;;;;;;;;;;9.96;68.11;102048.64;1745323;81;20282;-77
2021/04/28 10:33:51;;;;;;;;;;;;;;;9.98;68.28;102052.06;1746547;81;20206;-77
2021/04/28 10:36:24;;;;;;;;;;;;;;;10.02;68.44;102053.30;1743530;81;20210;-77
2021/04/28 10:38:56;;;;;;;;;;;;;;;10.09;68.70;102046.67;1742894;81;20247;-81
2021/04/28 10:44:42;;;;;;;;;;;;;;;10.20;67.92;102019.59;1742085;81;20598;-78
2021/04/28 10:47:28;;;;;;;;;;;;;;;10.24;67.77;102026.40;1746526;81;20179;-76
2021/04/28 10:50:15;;;;;;;;;;;;;;;10.26;67.78;102025.63;1742932;81;20615;-79
2021/04/28 10:52:59;;;;;;;;;;;;;;;10.31;67.78;102036.05;1746250;81;20253;-81
2021/04/28 10:55:49;;;;;;;;;;;;;;;10.36;67.95;102025.98;1748102;81;20292;-77
2021/04/28 10:58:30;;;;;;;;;;;;;;;10.44;67.91;102027.60;1743434;81;20547;-78
2021/04/28 11:01:08;;;;;;;;;;;;;;;10.51;67.51;102029.81;1744685;81;20326;-78
2021/04/28 11:03:56;;;;;;;;;;;;;;;10.62;67.49;102024.34;1747595;81;20251;-80
2021/04/28 11:06:30;;;;;;;;;;;;;;;10.71;67.21;102027.13;1740422;82;20627;-75
2021/04/28 11:09:07;;;;;;;;;;;;;;;10.82;67.14;102012.49;1729919;81;20267;-79
2021/04/28 11:11:46;;;;;;;;;;;;;;;10.92;66.55;102014.73;1736060;81;20291;-82
2021/04/28 11:14:21;;;;;;;;;;;;;;;10.96;66.13;102009.87;1730051;82;20329;-81
2021/04/28 11:17:17;;;;;;;;;;;;;;;11.03;66.29;101998.69;1720915;82;20295;-78
2021/04/28 11:19:52;;;;;;;;;;;;;;;11.11;65.79;101995.59;1738435;82;20226;-74
2021/04/28 11:22:27;;;;;;;;;;;;;;;11.15;65.45;101991.28;1765259;80;20756;-77
2021/04/28 11:25:02;;;;;;;;;;;;;;;11.19;65.40;101985.02;1760238;80;20357;-79
2021/04/28 11:28:06;;;;;;;;;;;;;;;11.29;65.30;101981.69;1759323;80;20181;-80
2021/04/28 11:33:33;;;;;;;;;;;;;;;11.42;64.86;101975.41;1755850;80;20545;-79
2021/04/28 11:36:09;;;;;;;;;;;;;;;11.49;64.28;101973.95;1767553;80;20614;-78
2021/04/28 11:38:46;;;;;;;;;;;;;;;11.53;64.26;101984.36;1759877;80;20290;-75
2021/04/28 11:41:18;;;;;;;;;;;;;;;11.56;64.12;101982.48;1755960;80;20172;-86
2021/04/28 11:43:52;;;;;;;;;;;;;;;11.53;63.83;101972.37;1754091;80;20574;-81
2021/04/28 11:46:29;;;;;;;;;;;;;;;11.53;63.95;101971.84;1754805;80;21161;-79
2021/04/28 11:49:02;;;;;;;;;;;;;;;11.58;63.95;101960.90;1752720;82;20594;-81
2021/04/28 11:51:37;;;;;;;;;;;;;;;11.64;63.91;101961.87;1760054;80;20306;-78
2021/04/28 11:54:13;;;;;;;;;;;;;;;11.61;63.89;101959.58;1757262;80;20582;-74
2021/04/28 11:56:48;;;;;;;;;;;;;;;11.64;64.26;101964.66;1761171;80;20446;-75
2021/04/28 11:59:25;;;;;;;;;;;;;;;11.65;63.66;101958.00;1760887;80;20258;-72
2021/04/28 12:02:08;;;;;;;;;;;;;;;11.67;63.74;101951.12;1776353;80;20292;-72
2021/04/28 12:04:46;;;;;;;;;;;;;;;11.73;63.93;101951.56;1771291;81;20250;-75
2021/04/28 12:07:17;;;;;;;;;;;;;;;11.79;63.94;101950.61;1774810;80;20257;-71
2021/04/28 12:10:12;;;;;;;;;;;;;;;11.83;63.58;101943.50;1765639;81;20190;-77
2021/04/28 12:12:41;;;;;;;;;;;;;;;11.89;63.45;101934.73;1764878;81;20222;-71
2021/04/28 12:15:14;;;;;;;;;;;;;;;11.96;63.32;101933.55;1764856;81;20590;-75
2021/04/28 12:17:47;;;;;;;;;;;;;;;12.03;63.39;101931.48;1765199;81;20258;-74
2021/04/28 12:20:23;;;;;;;;;;;;;;;12.08;62.41;101933.02;1765236;81;20202;-71
2021/04/28 12:22:58;;;;;;;;;;;;;;;12.03;61.93;101932.88;1764830;80;20221;-72
2021/04/28 12:25:30;;;;;;;;;;;;;;;11.99;62.23;101933.05;1765128;81;20221;-71
2021/04/28 12:28:01;;;;;;;;;;;;;;;11.97;62.22;101933.84;1765126;81;20772;-76
2021/04/28 12:30:33;;;;;;;;;;;;;;;11.97;61.91;101936.62;1764863;81;20174;-74
2021/04/28 12:33:06;;;;;;;;;;;;;;;11.99;61.67;101935.00;1764893;81;20253;-72
2021/04/28 12:35:39;;;;;;;;;;;;;;;11.97;61.61;101935.23;1764742;81;20557;-75
2021/04/28 12:38:17;;;;;;;;;;;;;;;11.92;61.78;101934.27;1765149;81;20171;-71
2021/04/28 12:40:58;;;;;;;;;;;;;;;11.86;62.37;101931.05;1765201;81;20286;-76
2021/04/28 12:43:36;;;;;;;;;;;;;;;11.81;62.31;101933.12;1765062;81;20249;-74
2021/04/28 12:46:11;;;;;;;;;;;;;;;11.73;62.23;101925.13;1764942;81;20171;-74
2021/04/28 12:48:59;;;;;;;;;;;;;;;11.65;62.43;101927.40;1764958;81;20194;-77
2021/04/28 12:51:32;;;;;;;;;;;;;;;11.59;62.83;101925.03;1764963;81;20257;-70
2021/04/28 12:54:06;;;;;;;;;;;;;;;11.47;63.26;101921.86;1761485;81;20213;-77
2021/04/28 12:56:42;;;;;;;;;;;;;;;11.32;63.68;101920.89;1783137;80;20216;-77
2021/04/28 12:59:18;;;;;;;;;;;;;;;11.25;64.14;101924.31;1762710;81;20252;-74
2021/04/28 13:02:04;;;;;;;;;;;;;;;11.25;64.40;101922.92;1762387;81;20249;-73
2021/04/28 13:04:36;;;;;;;;;;;;;;;11.30;64.36;101920.81;1762011;81;20335;-75
2021/04/28 13:07:16;;;;;;;;;;;;;;;11.34;64.44;101920.66;1746391;81;20220;-76
2021/04/28 13:09:49;;;;;;;;;;;;;;;11.36;64.30;101913.78;1752838;81;20325;-72
2021/04/28 13:12:36;;;;;;;;;;;;;;;11.40;64.23;101908.59;1761365;81;20223;-76
2021/04/28 13:15:11;;;;;;;;;;;;;;;11.41;64.37;101906.12;1761505;80;20279;-74
2021/04/28 13:17:57;;;;;;;;;;;;;;;11.41;64.67;101904.73;1757425;81;20573;-75
2021/04/28 13:20:32;;;;;;;;;;;;;;;11.43;64.68;101899.80;1759462;81;20590;-74
2021/04/28 13:23:13;;;;;;;;;;;;;;;11.44;65.04;101895.37;1760479;80;20237;-75
2021/04/28 13:25:56;;;;;;;;;;;;;;;11.45;64.96;101887.89;1761528;80;20184;-74
2021/04/28 13:28:38;;;;;;;;;;;;;;;11.45;64.54;101876.23;1768074;80;20249;-72
2021/04/28 13:31:24;;;;;;;;;;;;;;;11.48;64.30;101874.35;1763226;80;20600;-76